Kortenberg, Belgium
Current Conditions -  °F | °C
As of 9:50 PM on Sunday 21 Dec 2014 (Local Time) from EBBR Reporting Station
Broken Clouds Broken Clouds  
Wind Chill: 39°   Ceiling: 1600
Heat Index: 46°   Visibility: 6mi
Dew Point: 41°   Wind: 22mph
Humidity: 81%   Direction: 230°SW
Pressure: 30.27"   Gusts: NA
Location:  50.89°N, 4.54°E
Report Text: EBBR 212050Z 23019KT 9999 BKN016 BKN020 08/05 Q1025 TEMPO 23023G35KT BKN014
Loading
Personal Weather Stations






























Interactive Weather Map New forecast layout! Learn more

10-Day Weather Forecast

Advertisements
Track Severe Weather on mobile